sensor_id;sensor_type;location;lat;lon;timestamp;P1;durP1;ratioP1;P2;durP2;ratioP2
8737;SDS011;4405;49.272;8.590;2023-08-21T00:00:07;7.30;;;6.43;;
8737;SDS011;4405;49.272;8.590;2023-08-21T00:02:34;7.17;;;6.43;;
8737;SDS011;4405;49.272;8.590;2023-08-21T00:05:00;7.63;;;5.73;;
8737;SDS011;4405;49.272;8.590;2023-08-21T00:07:26;6.63;;;6.00;;
8737;SDS011;4405;49.272;8.590;2023-08-21T00:09:53;7.10;;;6.40;;
8737;SDS011;4405;49.272;8.590;2023-08-21T00:12:19;6.53;;;6.07;;
8737;SDS011;4405;49.272;8.590;2023-08-21T00:14:45;6.80;;;6.13;;
8737;SDS011;4405;49.272;8.590;2023-08-21T00:17:13;6.67;;;6.07;;
8737;SDS011;4405;49.272;8.590;2023-08-21T00:19:39;6.87;;;6.20;;
8737;SDS011;4405;49.272;8.590;2023-08-21T00:22:06;6.80;;;6.10;;
8737;SDS011;4405;49.272;8.590;2023-08-21T00:24:32;7.43;;;5.90;;
8737;SDS011;4405;49.272;8.590;2023-08-21T00:26:58;7.47;;;6.50;;
8737;SDS011;4405;49.272;8.590;2023-08-21T00:29:25;6.97;;;6.27;;
8737;SDS011;4405;49.272;8.590;2023-08-21T00:31:51;7.73;;;6.30;;
8737;SDS011;4405;49.272;8.590;2023-08-21T00:34:19;6.83;;;6.27;;
8737;SDS011;4405;49.272;8.590;2023-08-21T00:36:45;7.70;;;6.30;;
8737;SDS011;4405;49.272;8.590;2023-08-21T00:39:11;12.63;;;6.77;;
8737;SDS011;4405;49.272;8.590;2023-08-21T00:41:38;7.20;;;6.00;;
8737;SDS011;4405;49.272;8.590;2023-08-21T00:44:04;8.33;;;6.30;;
8737;SDS011;4405;49.272;8.590;2023-08-21T00:46:30;6.93;;;6.33;;
8737;SDS011;4405;49.272;8.590;2023-08-21T00:48:57;7.57;;;6.13;;
8737;SDS011;4405;49.272;8.590;2023-08-21T00:51:25;6.90;;;6.33;;
8737;SDS011;4405;49.272;8.590;2023-08-21T00:53:51;6.50;;;5.90;;
8737;SDS011;4405;49.272;8.590;2023-08-21T00:56:18;6.73;;;5.80;;
8737;SDS011;4405;49.272;8.590;2023-08-21T00:58:44;7.57;;;6.33;;
8737;SDS011;4405;49.272;8.590;2023-08-21T01:01:11;6.57;;;6.07;;
8737;SDS011;4405;49.272;8.590;2023-08-21T01:03:38;6.23;;;5.83;;
8737;SDS011;4405;49.272;8.590;2023-08-21T01:06:04;6.83;;;6.23;;
8737;SDS011;4405;49.272;8.590;2023-08-21T01:08:34;6.73;;;5.97;;
8737;SDS011;4405;49.272;8.590;2023-08-21T01:11:05;7.03;;;6.30;;
8737;SDS011;4405;49.272;8.590;2023-08-21T01:13:34;6.53;;;5.90;;
8737;SDS011;4405;49.272;8.590;2023-08-21T01:16:04;6.27;;;5.87;;
8737;SDS011;4405;49.272;8.590;2023-08-21T01:18:32;7.23;;;6.73;;
8737;SDS011;4405;49.272;8.590;2023-08-21T01:21:01;6.77;;;6.20;;
8737;SDS011;4405;49.272;8.590;2023-08-21T01:23:31;7.07;;;6.47;;
8737;SDS011;4405;49.272;8.590;2023-08-21T01:25:57;6.80;;;6.33;;
8737;SDS011;4405;49.272;8.590;2023-08-21T01:28:24;6.63;;;6.10;;
8737;SDS011;4405;49.272;8.590;2023-08-21T01:30:51;6.70;;;6.20;;
8737;SDS011;4405;49.272;8.590;2023-08-21T01:33:21;7.27;;;6.57;;
8737;SDS011;4405;49.272;8.590;2023-08-21T01:35:48;7.40;;;6.73;;
8737;SDS011;4405;49.272;8.590;2023-08-21T01:38:15;7.20;;;6.63;;
8737;SDS011;4405;49.272;8.590;2023-08-21T01:40:42;6.77;;;6.10;;
8737;SDS011;4405;49.272;8.590;2023-08-21T01:43:09;7.00;;;6.30;;
8737;SDS011;4405;49.272;8.590;2023-08-21T01:45:35;6.10;;;5.70;;
8737;SDS011;4405;49.272;8.590;2023-08-21T01:48:01;6.97;;;6.20;;
8737;SDS011;4405;49.272;8.590;2023-08-21T01:50:28;6.80;;;6.07;;
8737;SDS011;4405;49.272;8.590;2023-08-21T01:52:54;6.50;;;5.90;;
8737;SDS011;4405;49.272;8.590;2023-08-21T01:55:21;6.40;;;5.90;;
8737;SDS011;4405;49.272;8.590;2023-08-21T01:57:48;6.90;;;6.27;;
8737;SDS011;4405;49.272;8.590;2023-08-21T02:00:15;8.23;;;6.23;;
8737;SDS011;4405;49.272;8.590;2023-08-21T02:02:41;6.33;;;5.80;;
8737;SDS011;4405;49.272;8.590;2023-08-21T02:05:08;7.00;;;6.50;;
8737;SDS011;4405;49.272;8.590;2023-08-21T02:07:34;6.67;;;6.00;;
8737;SDS011;4405;49.272;8.590;2023-08-21T02:10:00;6.77;;;6.27;;
8737;SDS011;4405;49.272;8.590;2023-08-21T02:12:26;6.57;;;6.07;;
8737;SDS011;4405;49.272;8.590;2023-08-21T02:14:54;6.30;;;5.70;;
8737;SDS011;4405;49.272;8.590;2023-08-21T02:17:20;6.43;;;5.73;;
8737;SDS011;4405;49.272;8.590;2023-08-21T02:19:47;7.53;;;6.10;;
8737;SDS011;4405;49.272;8.590;2023-08-21T02:22:13;6.60;;;6.10;;
8737;SDS011;4405;49.272;8.590;2023-08-21T02:24:39;6.83;;;6.33;;
8737;SDS011;4405;49.272;8.590;2023-08-21T02:27:06;6.60;;;6.10;;
8737;SDS011;4405;49.272;8.590;2023-08-21T02:29:32;6.37;;;5.97;;
8737;SDS011;4405;49.272;8.590;2023-08-21T02:32:00;6.97;;;6.20;;
8737;SDS011;4405;49.272;8.590;2023-08-21T02:34:26;7.10;;;6.33;;
8737;SDS011;4405;49.272;8.590;2023-08-21T02:36:52;7.57;;;6.77;;
8737;SDS011;4405;49.272;8.590;2023-08-21T02:39:19;7.20;;;6.70;;
8737;SDS011;4405;49.272;8.590;2023-08-21T02:41:45;6.80;;;6.17;;
8737;SDS011;4405;49.272;8.590;2023-08-21T02:44:11;7.23;;;6.53;;
8737;SDS011;4405;49.272;8.590;2023-08-21T02:46:38;6.43;;;5.93;;
8737;SDS011;4405;49.272;8.590;2023-08-21T02:49:06;7.30;;;6.63;;
8737;SDS011;4405;49.272;8.590;2023-08-21T02:51:32;8.17;;;6.37;;
8737;SDS011;4405;49.272;8.590;2023-08-21T02:53:59;7.13;;;6.43;;
8737;SDS011;4405;49.272;8.590;2023-08-21T02:56:25;7.13;;;6.53;;
8737;SDS011;4405;49.272;8.590;2023-08-21T02:58:51;7.67;;;7.03;;
8737;SDS011;4405;49.272;8.590;2023-08-21T03:01:18;7.93;;;6.27;;
8737;SDS011;4405;49.272;8.590;2023-08-21T03:03:44;7.10;;;6.40;;
8737;SDS011;4405;49.272;8.590;2023-08-21T03:06:12;8.40;;;6.57;;
8737;SDS011;4405;49.272;8.590;2023-08-21T03:08:38;6.67;;;6.13;;
8737;SDS011;4405;49.272;8.590;2023-08-21T03:11:05;7.47;;;6.63;;
8737;SDS011;4405;49.272;8.590;2023-08-21T03:13:31;6.80;;;6.30;;
8737;SDS011;4405;49.272;8.590;2023-08-21T03:15:57;7.80;;;6.50;;
8737;SDS011;4405;49.272;8.590;2023-08-21T03:18:23;7.53;;;6.93;;
8737;SDS011;4405;49.272;8.590;2023-08-21T03:20:50;8.83;;;6.67;;
8737;SDS011;4405;49.272;8.590;2023-08-21T03:23:17;7.23;;;6.53;;
8737;SDS011;4405;49.272;8.590;2023-08-21T03:25:44;6.67;;;6.17;;
8737;SDS011;4405;49.272;8.590;2023-08-21T03:28:10;6.13;;;5.67;;
8737;SDS011;4405;49.272;8.590;2023-08-21T03:30:38;6.60;;;6.10;;
8737;SDS011;4405;49.272;8.590;2023-08-21T03:33:04;6.63;;;6.10;;
8737;SDS011;4405;49.272;8.590;2023-08-21T03:35:32;7.40;;;6.53;;
8737;SDS011;4405;49.272;8.590;2023-08-21T03:37:58;6.73;;;6.13;;
8737;SDS011;4405;49.272;8.590;2023-08-21T03:40:26;6.77;;;5.57;;
8737;SDS011;4405;49.272;8.590;2023-08-21T03:42:52;6.80;;;6.20;;
8737;SDS011;4405;49.272;8.590;2023-08-21T03:45:18;6.97;;;6.30;;
8737;SDS011;4405;49.272;8.590;2023-08-21T03:47:45;7.07;;;6.47;;
8737;SDS011;4405;49.272;8.590;2023-08-21T03:50:11;7.50;;;6.80;;
8737;SDS011;4405;49.272;8.590;2023-08-21T03:52:37;7.07;;;6.57;;
8737;SDS011;4405;49.272;8.590;2023-08-21T03:55:04;6.90;;;6.40;;
8737;SDS011;4405;49.272;8.590;2023-08-21T03:57:32;7.57;;;6.53;;
8737;SDS011;4405;49.272;8.590;2023-08-21T03:59:58;7.13;;;6.63;;
8737;SDS011;4405;49.272;8.590;2023-08-21T04:02:24;7.50;;;6.90;;
8737;SDS011;4405;49.272;8.590;2023-08-21T04:04:51;7.80;;;7.10;;
8737;SDS011;4405;49.272;8.590;2023-08-21T04:07:17;7.23;;;6.67;;
8737;SDS011;4405;49.272;8.590;2023-08-21T04:09:43;6.97;;;6.47;;
8737;SDS011;4405;49.272;8.590;2023-08-21T04:12:10;7.63;;;6.93;;
8737;SDS011;4405;49.272;8.590;2023-08-21T04:14:39;8.10;;;6.57;;
8737;SDS011;4405;49.272;8.590;2023-08-21T04:17:05;7.53;;;6.50;;
8737;SDS011;4405;49.272;8.590;2023-08-21T04:19:31;7.43;;;6.83;;
8737;SDS011;4405;49.272;8.590;2023-08-21T04:21:59;7.33;;;6.73;;
8737;SDS011;4405;49.272;8.590;2023-08-21T04:24:25;6.97;;;6.47;;
8737;SDS011;4405;49.272;8.590;2023-08-21T04:26:51;7.20;;;6.70;;
8737;SDS011;4405;49.272;8.590;2023-08-21T04:29:18;7.07;;;6.37;;
8737;SDS011;4405;49.272;8.590;2023-08-21T04:31:46;7.03;;;6.43;;
8737;SDS011;4405;49.272;8.590;2023-08-21T04:34:12;6.57;;;6.07;;
8737;SDS011;4405;49.272;8.590;2023-08-21T04:36:38;8.50;;;6.70;;
8737;SDS011;4405;49.272;8.590;2023-08-21T04:39:05;7.10;;;6.13;;
8737;SDS011;4405;49.272;8.590;2023-08-21T04:41:31;6.87;;;6.37;;
8737;SDS011;4405;49.272;8.590;2023-08-21T04:43:57;6.70;;;6.20;;
8737;SDS011;4405;49.272;8.590;2023-08-21T04:46:25;7.57;;;6.93;;
8737;SDS011;4405;49.272;8.590;2023-08-21T04:48:53;6.87;;;6.30;;
8737;SDS011;4405;49.272;8.590;2023-08-21T04:51:19;7.37;;;6.77;;
8737;SDS011;4405;49.272;8.590;2023-08-21T04:53:45;7.93;;;7.23;;
8737;SDS011;4405;49.272;8.590;2023-08-21T04:56:12;7.10;;;6.40;;
8737;SDS011;4405;49.272;8.590;2023-08-21T04:58:38;7.53;;;6.83;;
8737;SDS011;4405;49.272;8.590;2023-08-21T05:01:04;7.47;;;6.87;;
8737;SDS011;4405;49.272;8.590;2023-08-21T05:03:31;7.80;;;6.80;;
8737;SDS011;4405;49.272;8.590;2023-08-21T05:05:58;7.07;;;6.47;;
8737;SDS011;4405;49.272;8.590;2023-08-21T05:08:25;7.10;;;6.43;;
8737;SDS011;4405;49.272;8.590;2023-08-21T05:10:55;6.70;;;6.23;;
8737;SDS011;4405;49.272;8.590;2023-08-21T05:13:21;7.30;;;6.37;;
8737;SDS011;4405;49.272;8.590;2023-08-21T05:15:50;7.60;;;5.80;;
8737;SDS011;4405;49.272;8.590;2023-08-21T05:18:17;6.80;;;6.20;;
8737;SDS011;4405;49.272;8.590;2023-08-21T05:20:43;8.67;;;6.97;;
8737;SDS011;4405;49.272;8.590;2023-08-21T05:23:11;7.43;;;6.63;;
8737;SDS011;4405;49.272;8.590;2023-08-21T05:25:37;6.93;;;6.30;;
8737;SDS011;4405;49.272;8.590;2023-08-21T05:28:04;8.17;;;6.53;;
8737;SDS011;4405;49.272;8.590;2023-08-21T05:30:30;7.90;;;7.20;;
8737;SDS011;4405;49.272;8.590;2023-08-21T05:32:57;7.27;;;6.57;;
8737;SDS011;4405;49.272;8.590;2023-08-21T05:35:23;8.40;;;7.80;;
8737;SDS011;4405;49.272;8.590;2023-08-21T05:37:49;8.10;;;7.40;;
8737;SDS011;4405;49.272;8.590;2023-08-21T05:40:17;7.93;;;7.13;;
8737;SDS011;4405;49.272;8.590;2023-08-21T05:42:44;7.60;;;7.00;;
8737;SDS011;4405;49.272;8.590;2023-08-21T05:45:10;7.93;;;7.30;;
8737;SDS011;4405;49.272;8.590;2023-08-21T05:47:36;8.53;;;7.73;;
8737;SDS011;4405;49.272;8.590;2023-08-21T05:50:03;9.20;;;8.30;;
8737;SDS011;4405;49.272;8.590;2023-08-21T05:52:29;8.63;;;7.83;;
8737;SDS011;4405;49.272;8.590;2023-08-21T05:54:56;8.83;;;7.93;;
8737;SDS011;4405;49.272;8.590;2023-08-21T05:57:23;9.23;;;8.33;;
8737;SDS011;4405;49.272;8.590;2023-08-21T05:59:50;8.73;;;7.90;;
8737;SDS011;4405;49.272;8.590;2023-08-21T06:02:16;9.73;;;8.13;;
8737;SDS011;4405;49.272;8.590;2023-08-21T06:04:43;9.43;;;8.37;;
8737;SDS011;4405;49.272;8.590;2023-08-21T06:07:09;10.63;;;8.77;;
8737;SDS011;4405;49.272;8.590;2023-08-21T06:09:36;10.87;;;9.43;;
8737;SDS011;4405;49.272;8.590;2023-08-21T06:12:02;10.73;;;9.30;;
8737;SDS011;4405;49.272;8.590;2023-08-21T06:14:30;10.13;;;9.20;;
8737;SDS011;4405;49.272;8.590;2023-08-21T06:16:56;10.37;;;9.27;;
8737;SDS011;4405;49.272;8.590;2023-08-21T06:19:23;11.13;;;9.40;;
8737;SDS011;4405;49.272;8.590;2023-08-21T06:21:49;12.37;;;9.63;;
8737;SDS011;4405;49.272;8.590;2023-08-21T06:24:16;13.73;;;11.03;;
8737;SDS011;4405;49.272;8.590;2023-08-21T06:26:42;16.63;;;12.03;;
8737;SDS011;4405;49.272;8.590;2023-08-21T06:29:08;12.63;;;9.10;;
8737;SDS011;4405;49.272;8.590;2023-08-21T06:31:36;9.43;;;8.60;;
8737;SDS011;4405;49.272;8.590;2023-08-21T06:34:02;8.17;;;7.43;;
8737;SDS011;4405;49.272;8.590;2023-08-21T06:36:29;8.90;;;8.00;;
8737;SDS011;4405;49.272;8.590;2023-08-21T06:38:55;13.93;;;8.70;;
8737;SDS011;4405;49.272;8.590;2023-08-21T06:41:21;16.93;;;9.57;;
8737;SDS011;4405;49.272;8.590;2023-08-21T06:43:48;9.43;;;8.63;;
8737;SDS011;4405;49.272;8.590;2023-08-21T06:46:14;9.00;;;8.10;;
8737;SDS011;4405;49.272;8.590;2023-08-21T06:48:42;9.00;;;8.03;;
8737;SDS011;4405;49.272;8.590;2023-08-21T06:51:08;12.17;;;8.77;;
8737;SDS011;4405;49.272;8.590;2023-08-21T06:53:35;9.80;;;8.80;;
8737;SDS011;4405;49.272;8.590;2023-08-21T06:56:01;9.40;;;8.40;;
8737;SDS011;4405;49.272;8.590;2023-08-21T06:58:28;12.50;;;9.83;;
8737;SDS011;4405;49.272;8.590;2023-08-21T07:00:55;12.47;;;8.60;;
8737;SDS011;4405;49.272;8.590;2023-08-21T07:03:21;13.77;;;8.33;;
8737;SDS011;4405;49.272;8.590;2023-08-21T07:05:54;15.00;;;8.73;;
8737;SDS011;4405;49.272;8.590;2023-08-21T07:08:21;13.10;;;8.70;;
8737;SDS011;4405;49.272;8.590;2023-08-21T07:10:47;12.23;;;9.40;;
8737;SDS011;4405;49.272;8.590;2023-08-21T07:13:14;11.23;;;9.63;;
8737;SDS011;4405;49.272;8.590;2023-08-21T07:15:40;10.77;;;9.43;;
8737;SDS011;4405;49.272;8.590;2023-08-21T07:18:06;9.90;;;8.83;;
8737;SDS011;4405;49.272;8.590;2023-08-21T07:20:33;11.17;;;9.30;;
8737;SDS011;4405;49.272;8.590;2023-08-21T07:23:01;11.20;;;8.53;;
8737;SDS011;4405;49.272;8.590;2023-08-21T07:25:28;9.93;;;9.03;;
8737;SDS011;4405;49.272;8.590;2023-08-21T07:27:54;8.97;;;8.07;;
8737;SDS011;4405;49.272;8.590;2023-08-21T07:30:21;15.83;;;8.77;;
8737;SDS011;4405;49.272;8.590;2023-08-21T07:32:48;10.70;;;8.77;;
8737;SDS011;4405;49.272;8.590;2023-08-21T07:35:14;12.90;;;8.80;;
8737;SDS011;4405;49.272;8.590;2023-08-21T07:37:43;9.33;;;8.43;;
8737;SDS011;4405;49.272;8.590;2023-08-21T07:40:11;9.27;;;8.37;;
8737;SDS011;4405;49.272;8.590;2023-08-21T07:42:37;12.03;;;8.00;;
8737;SDS011;4405;49.272;8.590;2023-08-21T07:45:04;8.70;;;7.80;;
8737;SDS011;4405;49.272;8.590;2023-08-21T07:47:32;8.37;;;7.57;;
8737;SDS011;4405;49.272;8.590;2023-08-21T07:49:58;13.10;;;8.80;;
8737;SDS011;4405;49.272;8.590;2023-08-21T07:52:25;10.07;;;7.80;;
8737;SDS011;4405;49.272;8.590;2023-08-21T07:54:51;12.93;;;7.80;;
8737;SDS011;4405;49.272;8.590;2023-08-21T07:57:19;13.03;;;8.50;;
8737;SDS011;4405;49.272;8.590;2023-08-21T07:59:45;8.93;;;7.90;;
8737;SDS011;4405;49.272;8.590;2023-08-21T08:02:11;7.63;;;6.73;;
8737;SDS011;4405;49.272;8.590;2023-08-21T08:04:39;8.30;;;7.60;;
8737;SDS011;4405;49.272;8.590;2023-08-21T08:07:05;7.50;;;6.90;;
8737;SDS011;4405;49.272;8.590;2023-08-21T08:09:31;9.30;;;7.53;;
8737;SDS011;4405;49.272;8.590;2023-08-21T08:11:58;8.13;;;7.33;;
8737;SDS011;4405;49.272;8.590;2023-08-21T08:14:25;8.30;;;7.50;;
8737;SDS011;4405;49.272;8.590;2023-08-21T08:16:52;7.80;;;7.10;;
8737;SDS011;4405;49.272;8.590;2023-08-21T08:19:18;7.27;;;6.67;;
8737;SDS011;4405;49.272;8.590;2023-08-21T08:21:44;8.70;;;7.90;;
8737;SDS011;4405;49.272;8.590;2023-08-21T08:24:11;10.17;;;8.70;;
8737;SDS011;4405;49.272;8.590;2023-08-21T08:26:37;11.37;;;7.47;;
8737;SDS011;4405;49.272;8.590;2023-08-21T08:29:04;7.90;;;7.23;;
8737;SDS011;4405;49.272;8.590;2023-08-21T08:31:32;8.00;;;7.30;;
8737;SDS011;4405;49.272;8.590;2023-08-21T08:33:58;9.43;;;7.40;;
8737;SDS011;4405;49.272;8.590;2023-08-21T08:36:25;7.73;;;7.10;;
8737;SDS011;4405;49.272;8.590;2023-08-21T08:38:51;6.87;;;6.20;;
8737;SDS011;4405;49.272;8.590;2023-08-21T08:41:21;9.43;;;6.90;;
8737;SDS011;4405;49.272;8.590;2023-08-21T08:43:50;7.40;;;6.80;;
8737;SDS011;4405;49.272;8.590;2023-08-21T08:46:16;7.30;;;6.80;;
8737;SDS011;4405;49.272;8.590;2023-08-21T08:48:44;7.60;;;7.20;;
8737;SDS011;4405;49.272;8.590;2023-08-21T08:51:11;7.77;;;7.00;;
8737;SDS011;4405;49.272;8.590;2023-08-21T08:53:38;7.40;;;6.70;;
8737;SDS011;4405;49.272;8.590;2023-08-21T08:56:04;7.77;;;6.90;;
8737;SDS011;4405;49.272;8.590;2023-08-21T08:58:30;7.63;;;7.07;;
8737;SDS011;4405;49.272;8.590;2023-08-21T09:00:57;7.73;;;7.13;;
8737;SDS011;4405;49.272;8.590;2023-08-21T09:03:24;10.57;;;7.60;;
8737;SDS011;4405;49.272;8.590;2023-08-21T09:05:52;7.90;;;7.20;;
8737;SDS011;4405;49.272;8.590;2023-08-21T09:08:18;8.67;;;7.87;;
8737;SDS011;4405;49.272;8.590;2023-08-21T09:10:45;7.65;;;6.95;;
8737;SDS011;4405;49.272;8.590;2023-08-21T09:13:12;7.07;;;6.55;;
8737;SDS011;4405;49.272;8.590;2023-08-21T09:15:40;7.95;;;7.22;;
8737;SDS011;4405;49.272;8.590;2023-08-21T09:18:09;7.60;;;7.13;;
8737;SDS011;4405;49.272;8.590;2023-08-21T09:20:35;7.18;;;6.47;;
8737;SDS011;4405;49.272;8.590;2023-08-21T09:23:03;6.88;;;6.38;;
8737;SDS011;4405;49.272;8.590;2023-08-21T09:25:33;7.88;;;7.07;;
8737;SDS011;4405;49.272;8.590;2023-08-21T09:27:59;7.20;;;6.65;;
8737;SDS011;4405;49.272;8.590;2023-08-21T09:30:26;6.80;;;6.32;;
8737;SDS011;4405;49.272;8.590;2023-08-21T09:32:53;7.50;;;6.90;;
8737;SDS011;4405;49.272;8.590;2023-08-21T09:35:20;7.07;;;6.65;;
8737;SDS011;4405;49.272;8.590;2023-08-21T09:37:46;8.13;;;7.32;;
8737;SDS011;4405;49.272;8.590;2023-08-21T09:40:14;11.13;;;7.13;;
8737;SDS011;4405;49.272;8.590;2023-08-21T09:42:40;6.55;;;6.05;;
8737;SDS011;4405;49.272;8.590;2023-08-21T09:45:07;6.15;;;5.72;;
8737;SDS011;4405;49.272;8.590;2023-08-21T09:47:34;6.47;;;6.07;;
8737;SDS011;4405;49.272;8.590;2023-08-21T09:50:01;10.75;;;6.93;;
8737;SDS011;4405;49.272;8.590;2023-08-21T09:52:29;7.72;;;7.13;;
8737;SDS011;4405;49.272;8.590;2023-08-21T09:54:56;9.35;;;6.82;;
8737;SDS011;4405;49.272;8.590;2023-08-21T09:57:24;7.70;;;7.00;;
8737;SDS011;4405;49.272;8.590;2023-08-21T09:59:51;7.40;;;6.80;;
8737;SDS011;4405;49.272;8.590;2023-08-21T10:02:18;7.10;;;6.40;;
8737;SDS011;4405;49.272;8.590;2023-08-21T10:04:45;6.75;;;6.25;;
8737;SDS011;4405;49.272;8.590;2023-08-21T10:07:14;7.78;;;6.53;;
8737;SDS011;4405;49.272;8.590;2023-08-21T10:09:41;9.98;;;6.53;;
8737;SDS011;4405;49.272;8.590;2023-08-21T10:12:09;6.47;;;5.90;;
8737;SDS011;4405;49.272;8.590;2023-08-21T10:14:37;6.72;;;5.85;;
8737;SDS011;4405;49.272;8.590;2023-08-21T10:17:03;6.15;;;5.55;;
8737;SDS011;4405;49.272;8.590;2023-08-21T10:19:31;6.00;;;5.25;;
8737;SDS011;4405;49.272;8.590;2023-08-21T10:21:58;5.13;;;4.72;;
8737;SDS011;4405;49.272;8.590;2023-08-21T10:24:28;5.68;;;5.13;;
8737;SDS011;4405;49.272;8.590;2023-08-21T10:26:57;5.60;;;5.10;;
8737;SDS011;4405;49.272;8.590;2023-08-21T10:29:23;6.07;;;5.35;;
8737;SDS011;4405;49.272;8.590;2023-08-21T10:31:59;5.25;;;4.85;;
8737;SDS011;4405;49.272;8.590;2023-08-21T10:34:31;5.30;;;4.90;;
8737;SDS011;4405;49.272;8.590;2023-08-21T10:37:08;5.25;;;4.75;;
8737;SDS011;4405;49.272;8.590;2023-08-21T10:39:37;6.13;;;5.43;;
8737;SDS011;4405;49.272;8.590;2023-08-21T10:42:05;5.07;;;4.68;;
8737;SDS011;4405;49.272;8.590;2023-08-21T10:47:19;5.15;;;4.85;;
8737;SDS011;4405;49.272;8.590;2023-08-21T10:49:46;5.18;;;4.88;;
8737;SDS011;4405;49.272;8.590;2023-08-21T10:52:12;5.28;;;4.95;;
8737;SDS011;4405;49.272;8.590;2023-08-21T10:54:43;5.13;;;4.82;;
8737;SDS011;4405;49.272;8.590;2023-08-21T10:57:10;5.00;;;4.60;;
8737;SDS011;4405;49.272;8.590;2023-08-21T10:59:36;5.30;;;4.80;;
8737;SDS011;4405;49.272;8.590;2023-08-21T11:02:02;4.88;;;4.50;;
8737;SDS011;4405;49.272;8.590;2023-08-21T11:04:30;7.60;;;6.30;;
8737;SDS011;4405;49.272;8.590;2023-08-21T11:07:05;5.10;;;4.80;;
8737;SDS011;4405;49.272;8.590;2023-08-21T11:09:32;5.00;;;4.63;;
8737;SDS011;4405;49.272;8.590;2023-08-21T11:12:04;7.10;;;5.18;;
8737;SDS011;4405;49.272;8.590;2023-08-21T11:14:31;5.65;;;4.57;;
8737;SDS011;4405;49.272;8.590;2023-08-21T11:16:58;4.70;;;4.30;;
8737;SDS011;4405;49.272;8.590;2023-08-21T11:19:25;5.05;;;4.65;;
8737;SDS011;4405;49.272;8.590;2023-08-21T11:21:53;4.47;;;4.13;;
8737;SDS011;4405;49.272;8.590;2023-08-21T11:24:19;5.28;;;4.75;;
8737;SDS011;4405;49.272;8.590;2023-08-21T11:26:46;7.38;;;4.93;;
8737;SDS011;4405;49.272;8.590;2023-08-21T11:29:13;5.70;;;5.20;;
8737;SDS011;4405;49.272;8.590;2023-08-21T11:31:39;5.05;;;4.85;;
8737;SDS011;4405;49.272;8.590;2023-08-21T11:34:08;5.00;;;4.60;;
8737;SDS011;4405;49.272;8.590;2023-08-21T11:36:35;5.28;;;4.88;;
8737;SDS011;4405;49.272;8.590;2023-08-21T11:39:03;5.22;;;4.93;;
8737;SDS011;4405;49.272;8.590;2023-08-21T11:41:30;5.10;;;4.75;;
8737;SDS011;4405;49.272;8.590;2023-08-21T11:44:01;4.82;;;4.53;;
8737;SDS011;4405;49.272;8.590;2023-08-21T11:46:27;5.50;;;4.90;;
8737;SDS011;4405;49.272;8.590;2023-08-21T11:48:54;5.38;;;4.97;;
8737;SDS011;4405;49.272;8.590;2023-08-21T11:51:20;4.90;;;4.50;;
8737;SDS011;4405;49.272;8.590;2023-08-21T11:53:47;7.18;;;5.20;;
8737;SDS011;4405;49.272;8.590;2023-08-21T11:56:16;4.90;;;4.50;;
8737;SDS011;4405;49.272;8.590;2023-08-21T11:58:43;5.78;;;4.75;;
8737;SDS011;4405;49.272;8.590;2023-08-21T12:01:10;6.13;;;4.43;;
8737;SDS011;4405;49.272;8.590;2023-08-21T12:03:37;5.28;;;4.88;;
8737;SDS011;4405;49.272;8.590;2023-08-21T12:06:04;5.45;;;4.95;;
8737;SDS011;4405;49.272;8.590;2023-08-21T12:08:31;5.40;;;4.93;;
8737;SDS011;4405;49.272;8.590;2023-08-21T12:10:57;5.00;;;4.63;;
8737;SDS011;4405;49.272;8.590;2023-08-21T12:13:25;5.72;;;5.20;;
8737;SDS011;4405;49.272;8.590;2023-08-21T12:15:51;5.85;;;4.90;;
8737;SDS011;4405;49.272;8.590;2023-08-21T12:18:17;5.25;;;4.85;;
8737;SDS011;4405;49.272;8.590;2023-08-21T12:20:44;4.93;;;4.60;;
8737;SDS011;4405;49.272;8.590;2023-08-21T12:23:10;4.85;;;4.55;;
8737;SDS011;4405;49.272;8.590;2023-08-21T12:25:37;5.20;;;4.68;;
8737;SDS011;4405;49.272;8.590;2023-08-21T12:28:03;5.15;;;4.63;;
8737;SDS011;4405;49.272;8.590;2023-08-21T12:30:31;4.38;;;4.07;;
8737;SDS011;4405;49.272;8.590;2023-08-21T12:32:57;5.72;;;4.93;;
8737;SDS011;4405;49.272;8.590;2023-08-21T12:35:24;5.20;;;4.80;;
8737;SDS011;4405;49.272;8.590;2023-08-21T12:37:50;5.60;;;4.70;;
8737;SDS011;4405;49.272;8.590;2023-08-21T12:40:16;4.63;;;4.22;;
8737;SDS011;4405;49.272;8.590;2023-08-21T12:42:43;4.85;;;4.53;;
8737;SDS011;4405;49.272;8.590;2023-08-21T12:45:09;4.55;;;4.20;;
8737;SDS011;4405;49.272;8.590;2023-08-21T12:47:37;5.90;;;4.28;;
8737;SDS011;4405;49.272;8.590;2023-08-21T12:50:04;6.30;;;4.53;;
8737;SDS011;4405;49.272;8.590;2023-08-21T12:52:31;4.55;;;4.25;;
8737;SDS011;4405;49.272;8.590;2023-08-21T12:54:57;4.25;;;3.95;;
8737;SDS011;4405;49.272;8.590;2023-08-21T12:57:24;4.63;;;4.20;;
8737;SDS011;4405;49.272;8.590;2023-08-21T12:59:51;4.18;;;3.80;;
8737;SDS011;4405;49.272;8.590;2023-08-21T13:02:17;4.28;;;3.90;;
8737;SDS011;4405;49.272;8.590;2023-08-21T13:04:46;4.00;;;3.78;;
8737;SDS011;4405;49.272;8.590;2023-08-21T13:07:12;4.00;;;3.70;;
8737;SDS011;4405;49.272;8.590;2023-08-21T13:09:38;5.28;;;3.90;;
8737;SDS011;4405;49.272;8.590;2023-08-21T13:12:05;3.67;;;3.38;;
8737;SDS011;4405;49.272;8.590;2023-08-21T13:14:33;3.60;;;3.45;;
8737;SDS011;4405;49.272;8.590;2023-08-21T13:17:00;3.80;;;3.42;;
8737;SDS011;4405;49.272;8.590;2023-08-21T13:19:26;4.38;;;4.07;;
8737;SDS011;4405;49.272;8.590;2023-08-21T13:21:54;3.92;;;3.72;;
8737;SDS011;4405;49.272;8.590;2023-08-21T13:24:20;3.70;;;3.50;;
8737;SDS011;4405;49.272;8.590;2023-08-21T13:26:47;3.92;;;3.63;;
8737;SDS011;4405;49.272;8.590;2023-08-21T13:29:14;3.65;;;3.45;;
8737;SDS011;4405;49.272;8.590;2023-08-21T13:31:40;4.68;;;3.78;;
8737;SDS011;4405;49.272;8.590;2023-08-21T13:34:06;3.38;;;3.17;;
8737;SDS011;4405;49.272;8.590;2023-08-21T13:36:33;4.18;;;3.90;;
8737;SDS011;4405;49.272;8.590;2023-08-21T13:39:00;3.65;;;3.45;;
8737;SDS011;4405;49.272;8.590;2023-08-21T13:41:30;3.90;;;3.70;;
8737;SDS011;4405;49.272;8.590;2023-08-21T13:43:57;3.75;;;3.50;;
8737;SDS011;4405;49.272;8.590;2023-08-21T13:46:23;4.30;;;3.55;;
8737;SDS011;4405;49.272;8.590;2023-08-21T13:48:49;3.92;;;3.65;;
8737;SDS011;4405;49.272;8.590;2023-08-21T13:51:16;3.80;;;3.47;;
8737;SDS011;4405;49.272;8.590;2023-08-21T13:53:42;4.03;;;3.72;;
8737;SDS011;4405;49.272;8.590;2023-08-21T13:56:10;4.25;;;3.90;;
8737;SDS011;4405;49.272;8.590;2023-08-21T13:58:36;4.00;;;3.70;;
8737;SDS011;4405;49.272;8.590;2023-08-21T14:01:03;3.70;;;3.40;;
8737;SDS011;4405;49.272;8.590;2023-08-21T14:03:31;4.45;;;4.15;;
8737;SDS011;4405;49.272;8.590;2023-08-21T14:05:58;4.70;;;4.13;;
8737;SDS011;4405;49.272;8.590;2023-08-21T14:08:24;4.18;;;3.97;;
8737;SDS011;4405;49.272;8.590;2023-08-21T14:10:50;3.75;;;3.50;;
8737;SDS011;4405;49.272;8.590;2023-08-21T14:13:18;4.18;;;3.78;;
8737;SDS011;4405;49.272;8.590;2023-08-21T14:15:44;4.47;;;4.10;;
8737;SDS011;4405;49.272;8.590;2023-08-21T14:18:11;3.80;;;3.60;;
8737;SDS011;4405;49.272;8.590;2023-08-21T14:20:37;4.07;;;3.67;;
8737;SDS011;4405;49.272;8.590;2023-08-21T14:23:04;4.90;;;4.30;;
8737;SDS011;4405;49.272;8.590;2023-08-21T14:25:30;5.90;;;3.95;;
8737;SDS011;4405;49.272;8.590;2023-08-21T14:27:57;4.95;;;4.13;;
8737;SDS011;4405;49.272;8.590;2023-08-21T14:30:25;3.90;;;3.70;;
8737;SDS011;4405;49.272;8.590;2023-08-21T14:32:51;3.97;;;3.67;;
8737;SDS011;4405;49.272;8.590;2023-08-21T14:35:17;3.60;;;3.40;;
8737;SDS011;4405;49.272;8.590;2023-08-21T14:37:44;4.07;;;3.88;;
8737;SDS011;4405;49.272;8.590;2023-08-21T14:40:10;4.32;;;4.03;;
8737;SDS011;4405;49.272;8.590;2023-08-21T14:42:37;5.18;;;4.10;;
8737;SDS011;4405;49.272;8.590;2023-08-21T14:45:03;5.78;;;4.55;;
8737;SDS011;4405;49.272;8.590;2023-08-21T14:47:31;4.47;;;3.95;;
8737;SDS011;4405;49.272;8.590;2023-08-21T14:49:58;4.43;;;4.07;;
8737;SDS011;4405;49.272;8.590;2023-08-21T14:52:24;4.47;;;4.18;;
8737;SDS011;4405;49.272;8.590;2023-08-21T14:54:52;4.30;;;4.10;;
8737;SDS011;4405;49.272;8.590;2023-08-21T14:57:19;4.32;;;4.03;;
8737;SDS011;4405;49.272;8.590;2023-08-21T14:59:45;4.13;;;3.83;;
8737;SDS011;4405;49.272;8.590;2023-08-21T15:02:11;4.13;;;3.92;;
8737;SDS011;4405;49.272;8.590;2023-08-21T15:04:39;4.30;;;4.10;;
8737;SDS011;4405;49.272;8.590;2023-08-21T15:07:05;4.07;;;3.88;;
8737;SDS011;4405;49.272;8.590;2023-08-21T15:09:32;4.60;;;4.20;;
8737;SDS011;4405;49.272;8.590;2023-08-21T15:11:58;5.13;;;4.30;;
8737;SDS011;4405;49.272;8.590;2023-08-21T15:14:24;4.53;;;4.22;;